Time;durP1;ratioP1;P1;durP2;ratioP2;P2;SDS_P1;SDS_P2;PMS_P1;PMS_P2;Temp;Humidity;BMP_temperature;BMP_pressure;BME280_temperature;BME280_humidity;BME280_pressure;Samples;Min_cycle;Max_cycle;Signal;HPM_P1;HPM_P2
2023/07/15 00:01:21;;;;;;;9.60;7.05;;;;;;;-144.30;60.27;83719.03;5070356;28;20283;-52
2023/07/15 00:03:49;;;;;;;13.50;7.53;;;;;;;-144.30;60.45;83754.78;5069238;28;20287;-51
2023/07/15 00:06:18;;;;;;;10.07;6.60;;;;;;;-144.30;59.80;83723.00;5067656;28;20299;-51
2023/07/15 00:08:46;;;;;;;10.88;6.45;;;;;;;-144.30;59.44;83752.78;5070147;28;20192;-52
2023/07/15 00:11:19;;;;;;;7.15;6.45;;;;;;;-144.30;59.51;83758.75;5070277;28;20198;-48
2023/07/15 00:13:46;;;;;;;8.93;6.30;;;;;;;-144.30;59.71;83764.72;5070115;28;20240;-50
2023/07/15 00:16:13;;;;;;;6.97;6.28;;;;;;;-144.30;59.77;83758.75;5070271;28;20199;-50
2023/07/15 00:18:41;;;;;;;10.25;6.72;;;;;;;-144.30;60.01;83723.00;5069912;28;20610;-52
2023/07/15 00:21:20;;;;;;;13.77;7.90;;;;;;;-144.30;60.78;83732.94;5070136;28;20207;-52
2023/07/15 00:23:48;;;;;;;13.18;7.15;;;;;;;-144.30;61.33;83776.66;5068841;28;20192;-52
2023/07/15 00:26:15;;;;;;;12.05;8.23;;;;;;;-144.30;61.91;83752.78;5070052;28;20714;-51
2023/07/15 00:28:42;;;;;;;9.35;8.45;;;;;;;-144.30;63.14;83736.91;5068768;28;20219;-48
2023/07/15 00:31:14;;;;;;;10.35;8.15;;;;;;;-144.30;63.11;83709.09;5069996;28;20568;-49
2023/07/15 00:33:42;;;;;;;9.00;8.40;;;;;;;-144.30;62.71;83705.09;5067960;28;20564;-52
2023/07/15 00:36:10;;;;;;;11.88;8.07;;;;;;;-144.30;62.10;83715.03;5069981;28;20818;-51
2023/07/15 00:38:38;;;;;;;10.95;8.18;;;;;;;-144.30;60.73;83774.66;5067366;28;20286;-49
2023/07/15 00:41:11;;;;;;;11.05;6.90;;;;;;;-144.30;59.85;83721.00;5069466;28;20632;-49
2023/07/15 00:43:54;;;;;;;10.32;7.18;;;;;;;-144.30;59.83;83800.50;5067150;28;20214;-52
2023/07/15 00:46:49;;;;;;;8.45;6.57;;;;;;;-144.30;59.82;83790.56;5067594;28;20223;-51
2023/07/15 00:49:21;;;;;;;7.80;6.43;;;;;;;-144.30;59.68;83724.97;5066956;28;20202;-48
2023/07/15 00:52:08;;;;;;;7.47;6.82;;;;;;;-144.30;59.91;83818.38;5069360;28;20676;-52
2023/07/15 00:54:37;;;;;;;8.07;6.60;;;;;;;-144.30;59.66;83790.56;5069389;28;20195;-49
2023/07/15 00:57:06;;;;;;;9.90;6.40;;;;;;;-144.30;59.55;83794.53;5069428;28;20196;-49
2023/07/15 00:59:33;;;;;;;14.13;6.47;;;;;;;-144.30;58.91;83768.69;5069404;28;20325;-49
2023/07/15 01:02:02;;;;;;;12.43;6.63;;;;;;;-144.30;58.66;83758.75;5068982;28;20736;-49
2023/07/15 01:04:30;;;;;;;13.13;6.80;;;;;;;-144.30;58.89;83816.38;5069322;28;20192;-49
2023/07/15 01:06:57;;;;;;;7.03;6.40;;;;;;;-144.30;58.97;83768.69;5066505;28;20223;-47
2023/07/15 01:09:26;;;;;;;8.85;6.15;;;;;;;-144.30;59.04;83824.31;5069356;28;20188;-51
2023/07/15 01:11:54;;;;;;;6.47;5.57;;;;;;;-144.30;58.91;83766.72;5068953;28;20188;-51
2023/07/15 01:14:21;;;;;;;6.22;5.68;;;;;;;-144.30;58.48;83810.41;5069182;28;20247;-49
2023/07/15 01:16:48;;;;;;;12.57;6.07;;;;;;;-144.30;58.34;83820.34;5069079;28;20188;-52
2023/07/15 01:19:18;;;;;;;12.27;6.38;;;;;;;-144.30;58.57;83816.38;5068912;28;20196;-48
2023/07/15 01:21:49;;;;;;;6.30;5.65;;;;;;;-144.30;58.39;83834.25;5068959;28;20227;-49
2023/07/15 01:24:18;;;;;;;6.40;5.75;;;;;;;-144.30;58.52;83798.50;5066624;28;20526;-48
2023/07/15 01:26:45;;;;;;;7.82;6.10;;;;;;;-144.30;58.35;83838.25;5068956;28;20621;-51
2023/07/15 01:29:13;;;;;;;6.07;5.50;;;;;;;-144.30;58.15;83818.38;5069028;28;20203;-53
2023/07/15 01:31:40;;;;;;;7.78;6.03;;;;;;;-144.30;57.77;83848.19;5068668;28;20196;-48
2023/07/15 01:34:08;;;;;;;6.32;5.63;;;;;;;-144.30;57.80;83848.19;5069184;28;20633;-49
2023/07/15 01:36:35;;;;;;;8.68;6.00;;;;;;;-144.30;57.52;83852.16;5068738;28;20220;-48
2023/07/15 01:39:06;;;;;;;7.03;5.22;;;;;;;-144.30;57.42;83834.25;5068355;28;20195;-51
2023/07/15 01:41:34;;;;;;;12.95;5.63;;;;;;;-144.30;57.31;83842.22;5068899;28;20195;-48
2023/07/15 01:44:02;;;;;;;7.68;5.72;;;;;;;-144.30;57.22;83850.16;5068637;28;20684;-49
2023/07/15 01:46:30;;;;;;;5.60;5.10;;;;;;;-144.30;57.25;83883.94;5069136;28;20709;-52
2023/07/15 01:48:59;;;;;;;6.07;5.47;;;;;;;-144.30;57.29;83858.09;5066222;28;20191;-52
2023/07/15 01:51:26;;;;;;;12.90;6.03;;;;;;;-144.30;57.14;83866.06;5068817;28;20195;-49
2023/07/15 01:53:53;;;;;;;7.63;5.45;;;;;;;-144.30;56.98;83872.03;5068559;28;20196;-50
2023/07/15 01:56:21;;;;;;;6.03;5.40;;;;;;;-144.30;57.16;83868.03;5068796;28;20219;-51
2023/07/15 01:58:49;;;;;;;7.80;5.07;;;;;;;-144.30;57.10;83846.19;5068646;28;20199;-48
2023/07/15 02:01:16;;;;;;;9.05;5.13;;;;;;;-144.30;56.91;83881.97;5066101;28;20191;-48
2023/07/15 02:03:44;;;;;;;6.05;5.55;;;;;;;-144.30;56.88;83897.84;5068329;28;20219;-52
2023/07/15 02:06:11;;;;;;;11.00;5.85;;;;;;;-144.30;57.38;83883.94;5068792;28;20302;-52
2023/07/15 02:08:38;;;;;;;7.63;5.15;;;;;;;-144.30;57.28;83947.53;5066541;28;20192;-50
2023/07/15 02:11:04;;;;;;;6.70;5.40;;;;;;;-144.30;57.26;83933.63;5068559;28;20198;-49
2023/07/15 02:13:31;;;;;;;5.38;5.07;;;;;;;-144.30;56.93;83915.75;5068475;28;20200;-49
2023/07/15 02:16:00;;;;;;;6.22;5.32;;;;;;;-144.30;56.79;83905.81;5068429;28;20278;-49
2023/07/15 02:18:27;;;;;;;6.57;5.15;;;;;;;-144.30;56.80;83945.53;5068511;28;20275;-49
2023/07/15 02:20:54;;;;;;;5.75;5.18;;;;;;;-144.30;56.44;83933.63;5068363;28;20223;-51
2023/07/15 02:23:22;;;;;;;5.80;5.20;;;;;;;-144.30;55.98;83929.66;5068595;28;20658;-56
2023/07/15 02:25:49;;;;;;;10.32;4.50;;;;;;;-144.30;55.77;83923.69;5068562;28;20196;-51
2023/07/15 02:28:16;;;;;;;4.78;4.38;;;;;;;-144.30;55.74;83923.69;5068911;28;20195;-52
2023/07/15 02:30:43;;;;;;;5.88;4.18;;;;;;;-144.30;55.78;83917.72;5068156;28;20231;-50
2023/07/15 02:33:12;;;;;;;6.22;4.30;;;;;;;-144.30;55.80;83891.88;5068470;28;20257;-49
2023/07/15 02:35:40;;;;;;;5.68;4.80;;;;;;;-144.30;55.90;83901.81;5066131;28;20311;-50
2023/07/15 02:38:07;;;;;;;7.90;4.72;;;;;;;-144.30;55.96;83887.91;5068790;28;20196;-49
2023/07/15 02:40:34;;;;;;;7.30;4.65;;;;;;;-144.30;56.39;83929.66;5068218;28;20208;-52
2023/07/15 02:43:01;;;;;;;7.05;5.00;;;;;;;-144.30;56.19;83943.56;5068370;28;20680;-51
2023/07/15 02:45:28;;;;;;;7.65;4.88;;;;;;;-144.30;55.95;83953.50;5068650;28;20192;-51
2023/07/15 02:47:55;;;;;;;5.35;4.68;;;;;;;-144.30;55.78;83949.50;5068089;28;20593;-51
2023/07/15 02:50:23;;;;;;;5.78;4.68;;;;;;;-144.30;55.95;83889.91;5066075;28;20219;-48
2023/07/15 02:52:50;;;;;;;9.32;4.53;;;;;;;-144.30;55.82;83945.53;5071421;28;20200;-51
2023/07/15 02:55:17;;;;;;;8.35;5.10;;;;;;;-144.30;55.86;83913.75;5071719;28;20215;-51
2023/07/15 02:57:44;;;;;;;7.25;4.57;;;;;;;-144.30;55.85;83879.97;5069812;28;20192;-51
2023/07/15 03:00:14;;;;;;;6.15;4.45;;;;;;;-144.30;55.57;83961.44;5067656;28;20286;-49
2023/07/15 03:02:44;;;;;;;8.23;5.00;;;;;;;-144.30;55.51;83808.44;5069248;28;20646;-49
2023/07/15 03:05:11;;;;;;;7.15;5.15;;;;;;;-144.30;55.41;83925.66;5071657;28;20199;-52
2023/07/15 03:07:43;;;;;;;5.05;4.55;;;;;;;-144.30;55.85;83941.56;5071318;28;20300;-52
2023/07/15 03:10:12;;;;;;;4.90;4.43;;;;;;;-144.30;55.37;83881.97;5071825;28;20714;-52
2023/07/15 03:12:39;;;;;;;6.85;4.97;;;;;;;-144.30;55.32;83901.81;5071521;28;20192;-50
2023/07/15 03:15:07;;;;;;;9.60;4.80;;;;;;;-144.30;55.32;83923.69;5071483;28;20295;-52
2023/07/15 03:17:36;;;;;;;6.38;5.30;;;;;;;-144.30;55.46;83897.84;5071154;28;20245;-51
2023/07/15 03:20:14;;;;;;;6.70;4.97;;;;;;;-144.30;55.62;83923.69;5071334;28;20648;-51
2023/07/15 03:22:43;;;;;;;7.03;5.05;;;;;;;-144.30;55.76;83895.88;5070515;28;20743;-50
2023/07/15 03:25:10;;;;;;;7.20;4.78;;;;;;;-144.30;55.55;83891.88;5068930;28;20293;-49
2023/07/15 03:27:38;;;;;;;11.88;4.80;;;;;;;-144.30;55.25;83842.22;5071304;28;20234;-52
2023/07/15 03:30:07;;;;;;;7.22;5.60;;;;;;;-144.30;55.42;83893.88;5071050;28;20643;-52
2023/07/15 03:32:35;;;;;;;9.40;4.72;;;;;;;-144.30;55.59;83842.22;5071214;28;20618;-51
2023/07/15 03:35:03;;;;;;;5.45;5.03;;;;;;;-144.30;55.56;83877.97;5071238;28;20661;-49
2023/07/15 03:37:30;;;;;;;6.97;4.43;;;;;;;-144.30;55.85;83872.03;5071300;28;20184;-50
2023/07/15 03:39:58;;;;;;;10.93;5.38;;;;;;;-144.30;55.99;83893.88;5070901;28;20207;-53
2023/07/15 03:42:26;;;;;;;5.10;4.60;;;;;;;-144.30;55.62;83929.66;5071163;28;20594;-53
2023/07/15 03:44:53;;;;;;;5.20;4.65;;;;;;;-144.30;55.69;83899.84;5070795;28;20297;-50
2023/07/15 03:47:20;;;;;;;5.47;4.85;;;;;;;-144.30;55.73;83907.78;5070765;28;20212;-51
2023/07/15 03:49:47;;;;;;;5.68;5.18;;;;;;;-144.30;55.66;83864.06;5070749;28;20575;-51
2023/07/15 03:52:14;;;;;;;5.90;5.00;;;;;;;-144.30;55.85;83913.75;5070752;28;20192;-51
2023/07/15 03:54:43;;;;;;;6.03;4.60;;;;;;;-144.30;55.96;83923.69;5070794;28;20203;-50
2023/07/15 03:57:11;;;;;;;5.20;4.72;;;;;;;-144.30;55.94;83909.78;5068514;28;20196;-49
2023/07/15 03:59:38;;;;;;;7.45;5.20;;;;;;;-144.30;55.66;83874.00;5069126;28;20660;-51
2023/07/15 04:02:06;;;;;;;5.97;4.90;;;;;;;-144.30;55.01;83879.97;5069031;28;20251;-49
2023/07/15 04:04:33;;;;;;;7.10;5.13;;;;;;;-144.30;54.47;83870.03;5068812;28;20687;-50
2023/07/15 04:07:00;;;;;;;6.07;4.75;;;;;;;-144.30;53.51;83772.66;5067827;28;20303;-52
2023/07/15 04:09:26;;;;;;;8.13;4.65;;;;;;;-144.30;52.98;83780.63;5071168;28;20222;-53
2023/07/15 04:11:53;;;;;;;5.38;4.80;;;;;;;-144.30;52.69;83774.66;5056247;28;20230;-51
2023/07/15 04:14:22;;;;;;;8.57;4.95;;;;;;;-144.30;52.85;83750.81;5070200;28;20579;-51
2023/07/15 04:16:49;;;;;;;7.47;4.82;;;;;;;-144.30;52.61;83726.97;5070639;28;20643;-50
2023/07/15 04:19:16;;;;;;;6.47;4.65;;;;;;;-144.30;52.70;83715.03;5070774;28;20286;-53
2023/07/15 04:21:42;;;;;;;9.88;6.18;;;;;;;-144.30;51.67;83663.38;5070697;28;20200;-48
2023/07/15 04:24:09;;;;;;;6.60;4.55;;;;;;;-144.30;49.37;83572.00;5070117;28;20722;-51
2023/07/15 04:26:36;;;;;;;9.15;4.72;;;;;;;-144.30;48.27;83510.41;5060341;28;20220;-50
2023/07/15 04:29:03;;;;;;;7.63;3.78;;;;;;;-144.30;48.16;83472.66;5050366;28;20197;-52
2023/07/15 04:31:31;;;;;;;8.18;4.55;;;;;;;-144.30;47.35;83460.72;5067152;28;20218;-50
2023/07/15 04:33:58;;;;;;;7.70;4.53;;;;;;;-144.30;46.20;83367.34;5065345;28;20815;-50
2023/07/15 04:36:25;;;;;;;7.75;4.20;;;;;;;-144.30;45.68;83420.97;5070442;28;20270;-53
2023/07/15 04:38:52;;;;;;;9.48;4.55;;;;;;;-144.30;46.12;83387.22;5069630;28;20196;-53
2023/07/15 04:41:20;;;;;;;6.35;4.43;;;;;;;-144.30;45.74;83411.06;5069791;28;20656;-50
2023/07/15 04:43:46;;;;;;;8.52;4.70;;;;;;;-144.30;46.42;83464.69;5069607;28;20192;-50
2023/07/15 04:46:15;;;;;;;5.88;4.10;;;;;;;-144.30;46.84;83520.31;5066858;28;20210;-52
2023/07/15 04:48:43;;;;;;;9.40;4.50;;;;;;;-144.30;47.15;83490.53;5067216;28;20228;-52
2023/07/15 04:51:10;;;;;;;9.80;4.57;;;;;;;-144.30;47.81;83538.22;5067310;28;20192;-52
2023/07/15 04:53:42;;;;;;;7.70;4.25;;;;;;;-144.30;48.78;83629.59;5068628;28;20606;-49
2023/07/15 04:56:09;;;;;;;5.50;4.38;;;;;;;-144.30;49.05;83599.81;5069229;28;20644;-50
2023/07/15 04:58:36;;;;;;;7.53;4.40;;;;;;;-144.30;48.76;83577.94;5070343;28;20188;-50
2023/07/15 05:01:03;;;;;;;4.70;4.30;;;;;;;-144.30;48.56;83621.66;5069762;28;20195;-51
2023/07/15 05:03:31;;;;;;;8.32;5.15;;;;;;;-144.30;47.33;83405.09;5070183;28;20207;-50
2023/07/15 05:06:04;;;;;;;10.13;4.97;;;;;;;-144.30;45.46;83297.81;5069574;28;20192;-52
2023/07/15 05:08:31;;;;;;;6.35;4.20;;;;;;;-144.30;44.01;83156.75;5068879;28;21240;-52
2023/07/15 05:10:58;;;;;;;4.43;4.13;;;;;;;-144.30;42.78;83039.53;5069736;28;20683;-53
2023/07/15 05:13:25;;;;;;;5.28;4.78;;;;;;;-144.30;40.97;82832.94;5069543;28;20741;-51
2023/07/15 05:15:52;;;;;;;5.30;4.80;;;;;;;-144.30;40.23;82711.78;5069521;28;20724;-54
2023/07/15 05:18:19;;;;;;;7.93;4.35;;;;;;;-144.30;39.58;82658.13;5066190;28;20206;-51
2023/07/15 05:20:46;;;;;;;9.70;5.63;;;;;;;-144.30;39.32;82713.75;5066177;28;20202;-49
2023/07/15 05:23:15;;;;;;;5.85;4.28;;;;;;;-144.30;40.85;82922.34;5068082;28;20207;-51
2023/07/15 05:25:41;;;;;;;5.13;4.60;;;;;;;-144.30;41.85;83037.56;5068679;28;20203;-51
2023/07/15 05:28:08;;;;;;;5.95;4.40;;;;;;;-144.30;42.96;83119.00;5068298;28;20231;-51
2023/07/15 05:30:37;;;;;;;6.50;4.97;;;;;;;-144.30;43.24;83111.06;5069666;28;20200;-52
2023/07/15 05:33:04;;;;;;;8.65;4.78;;;;;;;-144.30;43.25;83126.94;5068179;28;20199;-51
2023/07/15 05:35:33;;;;;;;7.68;4.80;;;;;;;-144.30;43.57;83202.44;5068519;28;20231;-53
2023/07/15 05:37:59;;;;;;;9.15;4.72;;;;;;;-144.30;44.05;83198.47;5069301;28;20191;-53
2023/07/15 05:40:28;;;;;;;7.60;5.75;;;;;;;-144.30;43.72;83130.94;5068958;28;20279;-50
2023/07/15 05:42:55;;;;;;;5.35;4.85;;;;;;;-144.30;42.46;82960.06;5068594;28;20195;-52
2023/07/15 05:45:22;;;;;;;5.63;4.57;;;;;;;-144.30;41.93;82987.88;5068015;28;20283;-52
2023/07/15 05:47:49;;;;;;;5.28;4.57;;;;;;;-144.30;42.49;83083.25;5060805;28;20223;-53
2023/07/15 05:50:16;;;;;;;4.93;4.47;;;;;;;-144.30;42.19;83003.78;5049188;28;20722;-52
2023/07/15 05:52:43;;;;;;;8.20;4.13;;;;;;;-144.30;41.91;82888.56;5049290;28;20205;-52
2023/07/15 05:55:10;;;;;;;7.00;4.50;;;;;;;-144.30;40.84;82826.97;5049031;28;20207;-50
2023/07/15 05:57:38;;;;;;;7.03;4.20;;;;;;;-144.30;40.60;82803.16;5062841;28;20192;-52
2023/07/15 06:00:08;;;;;;;7.75;4.40;;;;;;;-144.30;39.51;82626.34;5068237;28;20279;-51
2023/07/15 06:02:35;;;;;;;5.35;4.18;;;;;;;-144.30;38.37;82535.00;5068509;28;20211;-50
2023/07/15 06:05:02;;;;;;;8.45;4.50;;;;;;;-144.30;38.13;82465.47;5066059;28;20191;-51
2023/07/15 06:07:29;;;;;;;5.32;4.68;;;;;;;-144.30;37.47;82364.16;5068835;28;20699;-52
2023/07/15 06:09:56;;;;;;;7.70;4.57;;;;;;;-144.30;37.23;82459.50;5068931;28;20196;-52
2023/07/15 06:12:23;;;;;;;7.63;4.93;;;;;;;-144.30;39.68;82691.91;5068504;28;20284;-52
2023/07/15 06:14:51;;;;;;;6.03;4.65;;;;;;;-144.30;39.32;82624.38;5068458;28;20586;-51
2023/07/15 06:17:18;;;;;;;7.55;4.75;;;;;;;-144.30;38.85;82614.44;5068990;28;20199;-50
2023/07/15 06:19:45;;;;;;;6.43;4.97;;;;;;;-144.30;38.91;82658.13;5069188;28;20708;-50
2023/07/15 06:22:12;;;;;;;8.73;5.22;;;;;;;-144.30;39.27;82719.72;5068565;28;20195;-52
2023/07/15 06:24:39;;;;;;;7.25;4.38;;;;;;;-144.30;39.92;82717.72;5066426;28;20283;-52
2023/07/15 06:27:06;;;;;;;8.80;4.55;;;;;;;-144.30;40.06;82747.53;5071077;28;20207;-50
2023/07/15 06:29:33;;;;;;;9.13;4.80;;;;;;;-144.30;40.77;82852.81;5072862;28;20204;-52
2023/07/15 06:32:01;;;;;;;6.63;4.75;;;;;;;-144.30;41.42;82890.56;5072583;28;20708;-51
2023/07/15 06:34:29;;;;;;;7.65;5.10;;;;;;;-144.30;41.62;82850.81;5073061;28;20547;-51
2023/07/15 06:36:55;;;;;;;8.55;5.00;;;;;;;-144.30;40.52;82735.59;5071858;28;20230;-51
2023/07/15 06:39:22;;;;;;;10.40;5.25;;;;;;;-144.30;38.89;82654.16;5071930;28;20275;-52
2023/07/15 06:41:51;;;;;;;6.88;4.65;;;;;;;-144.30;40.09;82862.75;5071545;28;20223;-52
2023/07/15 06:44:18;;;;;;;10.65;4.90;;;;;;;-144.30;40.54;82801.16;5070460;28;20206;-52
2023/07/15 06:46:45;;;;;;;8.23;4.97;;;;;;;-144.30;39.99;82805.13;5072314;28;20641;-52
2023/07/15 06:49:13;;;;;;;6.60;4.28;;;;;;;-144.30;39.80;82809.09;5071390;28;20343;-51
2023/07/15 06:51:40;;;;;;;7.82;4.85;;;;;;;-144.30;40.14;82842.88;5071564;28;20199;-52
2023/07/15 06:54:07;;;;;;;5.88;5.22;;;;;;;-144.30;40.51;82668.06;5071010;28;20727;-49
2023/07/15 06:56:34;;;;;;;6.85;5.10;;;;;;;-144.30;39.48;82646.22;5072142;28;20240;-51
2023/07/15 06:59:01;;;;;;;10.38;5.05;;;;;;;-144.30;38.44;82558.81;5070733;28;20224;-51
2023/07/15 07:01:28;;;;;;;6.13;4.90;;;;;;;-144.30;37.52;82451.56;5071417;28;20192;-51
2023/07/15 07:03:54;;;;;;;12.45;4.95;;;;;;;-144.30;37.35;82409.84;5071660;28;20200;-51
2023/07/15 07:06:23;;;;;;;5.78;5.25;;;;;;;-144.30;37.74;82495.25;5071403;28;20275;-52
2023/07/15 07:08:50;;;;;;;8.55;5.05;;;;;;;-144.30;38.25;82463.47;5071658;28;20216;-52
2023/07/15 07:11:17;;;;;;;8.20;4.95;;;;;;;-144.30;38.59;82590.59;5071412;28;20188;-51
2023/07/15 07:13:44;;;;;;;6.03;4.85;;;;;;;-144.30;38.78;82558.81;5069990;28;20203;-52
2023/07/15 07:16:11;;;;;;;5.35;4.80;;;;;;;-144.30;38.97;82697.88;5071456;28;20660;-51
2023/07/15 07:18:39;;;;;;;6.53;5.07;;;;;;;-144.30;38.94;82622.38;5071379;28;20216;-49
2023/07/15 07:21:06;;;;;;;10.32;5.57;;;;;;;-144.30;39.36;82721.69;5071358;28;20262;-50
2023/07/15 07:23:34;;;;;;;5.95;5.45;;;;;;;-144.30;39.36;82594.56;5069859;28;20602;-51
2023/07/15 07:26:01;;;;;;;10.30;5.70;;;;;;;-144.30;38.15;82477.38;5069766;28;20694;-52
2023/07/15 07:28:40;;;;;;;8.73;5.60;;;;;;;-144.30;37.34;82288.69;5068899;28;20216;-50
2023/07/15 07:31:07;;;;;;;7.88;5.10;;;;;;;-144.30;37.14;82376.09;5071416;28;20667;-51
2023/07/15 07:33:34;;;;;;;14.50;5.35;;;;;;;-144.30;37.40;82384.03;5071826;28;20204;-52
2023/07/15 07:36:01;;;;;;;9.32;5.47;;;;;;;-144.30;37.52;82306.56;5071202;28;20390;-50
2023/07/15 07:38:28;;;;;;;6.50;6.00;;;;;;;-144.30;37.38;82372.13;5071534;28;20210;-50
2023/07/15 07:40:56;;;;;;;8.00;6.22;;;;;;;-144.30;37.36;82185.41;5071330;28;20291;-51
2023/07/15 07:43:23;;;;;;;9.50;6.30;;;;;;;-144.30;37.19;82181.44;5071505;28;20199;-52
2023/07/15 07:45:50;;;;;;;6.82;5.82;;;;;;;-144.30;36.69;82090.09;5071420;28;20198;-50
2023/07/15 07:48:17;;;;;;;8.48;6.10;;;;;;;-144.30;35.82;82024.56;5071335;28;20307;-52
2023/07/15 07:50:44;;;;;;;12.70;6.88;;;;;;;-144.30;36.13;82163.56;5071748;28;20200;-52
2023/07/15 07:53:11;;;;;;;8.00;6.90;;;;;;;-144.30;36.33;82245.00;5071710;28;20283;-51
2023/07/15 07:55:39;;;;;;;9.82;6.55;;;;;;;-144.30;37.04;82298.63;5071519;28;20202;-49
2023/07/15 07:58:07;;;;;;;7.20;6.38;;;;;;;-144.30;37.48;82272.81;5071077;28;20188;-50
2023/07/15 08:00:34;;;;;;;10.55;7.28;;;;;;;-144.30;37.25;82237.06;5071117;28;20200;-51
2023/07/15 08:03:01;;;;;;;7.32;6.35;;;;;;;-144.30;36.36;82054.34;5070842;28;20235;-52
2023/07/15 08:05:28;;;;;;;10.35;6.43;;;;;;;-144.30;35.08;81806.09;5070997;28;20278;-52
2023/07/15 08:07:55;;;;;;;12.52;6.60;;;;;;;-144.30;34.35;81553.91;5070344;28;20224;-53
2023/07/15 08:10:22;;;;;;;7.85;7.07;;;;;;;-144.30;33.16;81295.75;5071108;28;20672;-51
2023/07/15 08:12:48;;;;;;;7.82;7.10;;;;;;;-144.30;32.00;81132.94;5070757;28;20201;-53
2023/07/15 08:15:17;;;;;;;9.70;7.30;;;;;;;-144.30;32.14;81136.91;5070999;28;20688;-53
2023/07/15 08:17:44;;;;;;;9.23;7.68;;;;;;;-144.30;31.30;80999.94;5071059;28;20671;-52
2023/07/15 08:20:11;;;;;;;9.02;6.38;;;;;;;-144.30;31.80;81081.34;5070472;28;20615;-51
2023/07/15 08:22:38;;;;;;;8.90;6.97;;;;;;;-144.30;32.73;81295.75;5070641;28;20200;-52
2023/07/15 08:25:05;;;;;;;9.02;8.07;;;;;;;-144.30;33.30;81567.78;5070466;28;20202;-52
2023/07/15 08:27:32;;;;;;;13.60;8.40;;;;;;;-144.30;33.36;81474.47;5070503;28;20915;-50
2023/07/15 08:29:59;;;;;;;11.23;7.97;;;;;;;-144.30;32.85;81359.31;5070282;28;20287;-52
2023/07/15 08:32:27;;;;;;;10.85;8.23;;;;;;;-144.30;32.16;81194.50;5070471;28;20286;-52
2023/07/15 08:34:58;;;;;;;9.40;7.93;;;;;;;-144.30;32.07;81190.53;5070131;28;20207;-51
2023/07/15 08:37:25;;;;;;;8.95;7.80;;;;;;;-144.30;32.93;81355.34;5070603;28;20586;-50
2023/07/15 08:39:52;;;;;;;8.43;7.57;;;;;;;-144.30;32.94;81315.63;5070217;28;20187;-52
2023/07/15 08:42:20;;;;;;;8.73;7.88;;;;;;;-144.30;32.78;81281.88;5070316;28;20202;-53
2023/07/15 08:44:47;;;;;;;9.40;8.18;;;;;;;-144.30;32.52;81295.75;5070133;28;20196;-58
2023/07/15 08:47:19;;;;;;;10.32;8.57;;;;;;;-144.30;32.63;81289.81;5062612;28;20195;-52
2023/07/15 08:49:49;;;;;;;12.68;8.50;;;;;;;-144.30;33.59;81494.31;5062360;28;20219;-52
2023/07/15 08:52:18;;;;;;;12.27;8.85;;;;;;;-144.30;33.91;81530.06;5066681;28;20191;-53
2023/07/15 08:54:46;;;;;;;8.35;7.60;;;;;;;-144.30;33.78;81472.47;5068319;28;20196;-53
2023/07/15 08:57:13;;;;;;;8.57;7.32;;;;;;;-144.30;33.87;81492.34;5066914;28;20188;-53
2023/07/15 08:59:40;;;;;;;10.48;6.95;;;;;;;-144.30;34.23;81518.16;5069004;28;20764;-50
2023/07/15 09:02:07;;;;;;;8.25;7.43;;;;;;;-144.30;34.93;81696.88;5068799;28;20210;-53
2023/07/15 09:04:34;;;;;;;10.73;8.00;;;;;;;-144.30;35.14;81756.44;5069671;28;20698;-53
2023/07/15 09:07:03;;;;;;;7.82;6.95;;;;;;;-144.30;35.69;81798.16;5069181;28;20203;-52
2023/07/15 09:09:34;;;;;;;10.32;6.38;;;;;;;-144.30;35.77;81831.91;5069230;28;20222;-53
2023/07/15 09:12:02;;;;;;;7.68;6.97;;;;;;;-144.30;35.53;81700.84;5069083;28;20203;-53
2023/07/15 09:14:29;;;;;;;10.60;6.70;;;;;;;-144.30;35.13;81601.56;5069155;28;20200;-51
2023/07/15 09:16:57;;;;;;;7.30;6.60;;;;;;;-144.30;34.84;81575.75;5069061;28;20223;-52
2023/07/15 09:19:26;;;;;;;7.68;6.80;;;;;;;-144.30;34.35;81484.41;5069238;28;20192;-52
2023/07/15 09:21:55;;;;;;;11.85;6.75;;;;;;;-144.30;34.41;81498.31;5066741;28;20196;-51
2023/07/15 09:24:24;;;;;;;10.07;7.18;;;;;;;-144.30;34.60;81506.25;5069333;28;20808;-51
2023/07/15 09:26:54;;;;;;;8.00;6.80;;;;;;;-144.30;34.35;81538.00;5066241;28;20192;-52
2023/07/15 09:29:21;;;;;;;9.50;6.97;;;;;;;-144.30;34.06;81460.56;5069031;28;20250;-51
2023/07/15 09:31:49;;;;;;;9.15;7.22;;;;;;;-144.30;34.40;81492.34;5069361;28;20667;-53
2023/07/15 09:34:16;;;;;;;9.48;7.00;;;;;;;-144.30;34.48;81593.63;5069017;28;20188;-52
2023/07/15 09:36:43;;;;;;;11.38;7.07;;;;;;;-144.30;34.76;81595.59;5068873;28;20318;-51
2023/07/15 09:39:14;;;;;;;10.57;7.22;;;;;;;-144.30;34.34;81474.47;5068646;28;20192;-52
2023/07/15 09:41:43;;;;;;;8.25;7.13;;;;;;;-144.30;33.99;81414.91;5069084;28;20195;-52
2023/07/15 09:44:11;;;;;;;12.60;7.40;;;;;;;-144.30;34.20;81446.66;5068743;28;20187;-52
2023/07/15 09:46:40;;;;;;;10.95;7.03;;;;;;;-144.30;34.33;81430.78;5069023;28;20194;-51
2023/07/15 09:49:07;;;;;;;8.35;7.03;;;;;;;-144.30;34.13;81418.88;5068536;28;20295;-51
2023/07/15 09:51:35;;;;;;;9.25;7.53;;;;;;;-144.30;34.00;81426.81;5069022;28;20285;-51
2023/07/15 09:54:03;;;;;;;8.73;7.22;;;;;;;-144.30;34.13;81414.91;5068508;28;20195;-51
2023/07/15 09:56:35;;;;;;;7.47;6.65;;;;;;;-144.30;34.30;81452.63;5068889;28;20227;-52
2023/07/15 09:59:09;;;;;;;8.57;7.88;;;;;;;-144.30;34.52;81460.56;5068453;28;20187;-51
2023/07/15 10:01:44;;;;;;;8.07;7.30;;;;;;;-144.30;34.33;81470.50;5070446;28;20202;-52
2023/07/15 10:04:19;;;;;;;9.48;7.40;;;;;;;-144.30;34.07;81430.78;5072706;28;20286;-52
2023/07/15 10:06:46;;;;;;;14.20;7.90;;;;;;;-144.30;34.21;81391.06;5072898;28;20296;-52
2023/07/15 10:09:15;;;;;;;13.25;8.15;;;;;;;-144.30;34.16;81480.44;5070076;28;20309;-52
2023/07/15 10:11:42;;;;;;;10.10;7.75;;;;;;;-144.30;34.11;81414.91;5072954;28;20187;-52
2023/07/15 10:14:11;;;;;;;9.02;8.15;;;;;;;-144.30;34.11;81399.00;5072610;28;20682;-52
2023/07/15 10:16:39;;;;;;;9.00;8.15;;;;;;;-144.30;33.75;81450.66;5072805;28;20701;-51
2023/07/15 10:19:05;;;;;;;10.57;7.35;;;;;;;-144.30;33.48;81538.00;5072152;28;20195;-52
2023/07/15 10:21:32;;;;;;;10.27;8.07;;;;;;;-144.30;33.96;81573.75;5070107;28;20249;-52
2023/07/15 10:24:10;;;;;;;11.68;7.90;;;;;;;-144.30;33.98;81555.88;5072199;28;20200;-50
2023/07/15 10:26:48;;;;;;;8.57;7.50;;;;;;;-144.30;34.13;81557.88;5070484;28;20191;-50
2023/07/15 10:29:16;;;;;;;9.15;7.97;;;;;;;-144.30;33.92;81639.28;5069626;28;20219;-52
2023/07/15 10:31:43;;;;;;;9.32;7.70;;;;;;;-144.30;34.36;81736.59;5072544;28;20206;-51
2023/07/15 10:34:12;;;;;;;9.20;7.75;;;;;;;-144.30;34.91;81879.56;5071965;28;20278;-52
2023/07/15 10:36:41;;;;;;;10.07;7.38;;;;;;;-144.30;34.81;81887.53;5072166;28;20281;-51
2023/07/15 10:39:13;;;;;;;8.82;7.88;;;;;;;-144.30;34.96;81849.78;5072010;28;20192;-52
2023/07/15 10:41:41;;;;;;;10.63;7.93;;;;;;;-144.30;35.09;81927.22;5072308;28;20672;-52
2023/07/15 10:44:20;;;;;;;9.13;8.20;;;;;;;-144.30;34.98;81903.41;5072193;28;20214;-52
2023/07/15 10:46:49;;;;;;;10.40;9.35;;;;;;;-144.30;34.74;81847.78;5072208;28;20202;-52
2023/07/15 10:49:17;;;;;;;8.93;8.05;;;;;;;-144.30;34.69;81843.81;5072539;28;20599;-51
2023/07/15 10:51:45;;;;;;;10.10;7.38;;;;;;;-144.30;34.81;81929.22;5069941;28;20204;-50
2023/07/15 10:54:12;;;;;;;9.80;8.80;;;;;;;-144.30;34.97;81915.31;5072225;28;20590;-51
2023/07/15 10:56:39;;;;;;;13.05;8.95;;;;;;;-144.30;35.22;81913.34;5071644;28;20200;-51
2023/07/15 10:59:06;;;;;;;12.30;7.70;;;;;;;-144.30;34.94;81974.91;5064903;28;20273;-50
2023/07/15 11:01:34;;;;;;;12.70;8.10;;;;;;;-144.30;34.96;81935.19;5066981;28;20202;-52
2023/07/15 11:04:06;;;;;;;12.90;8.10;;;;;;;-144.30;34.81;81953.06;5070198;28;20202;-53
2023/07/15 11:06:34;;;;;;;13.07;8.32;;;;;;;-144.30;34.67;81907.38;5070213;28;20698;-53
2023/07/15 11:09:14;;;;;;;9.52;7.28;;;;;;;-144.30;34.29;81883.53;5070873;28;20215;-52
2023/07/15 11:11:41;;;;;;;14.45;8.05;;;;;;;-144.30;34.76;81907.38;5069412;28;20200;-51
2023/07/15 11:14:22;;;;;;;12.45;8.07;;;;;;;-144.30;34.77;81847.78;5070532;28;20223;-50
2023/07/15 11:16:55;;;;;;;8.13;7.38;;;;;;;-144.30;34.47;81903.41;5067848;28;20200;-52
2023/07/15 11:19:23;;;;;;;9.93;7.85;;;;;;;-144.30;34.53;81907.38;5064696;28;20242;-51